PWSweather.com
Personal Weather Stations
Station Observations
PWSLORIS
The Farm At Fox Bay, Loris, SC 29569

The Farm At Fox BayLoris, SC 29569

Lat: 34.067097, Lon: -78.86907

Elevation: 108

Station Type: Davis Vantage Pro2 with 24 hr. FARS and solar

http://www.lorisweather.com

Latest ConditionsUpdated 6:15:01 AM EDT Monday, Jul 28, 2014
Currently Today's Max Today's Min Today's Average
Temperature 80.3°F26.8°C 82.5°F28.1°C 80.3°F26.8°C 81.6°F27.6°C
Dew Point 74.7°F23.7°C 75.8°F24.3°C 74.4°F23.6°C 75.1°F23.9°C
Winds 1.8 mph WSW2.9 kmh WSW 3.1 mph SW5.0 kmh SW - 0.8 mph 1.3 kmh
Wind Gusts 4.0 mph6.4 kmh 6.0 mph9.7 kmh - -
Humidity 83% 83% 79% 81%
Pressure 29.81 in1009.5 mb 29.86 in1011.2 mb 29.80 in1009.1 mb -
Hour Temp Dew Point Humidity Winds Wind Gusts Pressure Precip Precip Rate Daily Precip Total
06:15 AM 80.3°F26.8°C 74.7°F23.7°C 83% 1.8 mph WSW2.9 kmh WSW 4.0 mph6.4 kmh 29.81 in1009.5 mb 0.00 in0.0 mm 0.00 in/hr0.0 mm/hr 0.00 in0.0 mm
06:00 AM 80.4°F26.9°C 74.4°F23.6°C 82% Calm Calm -- 29.81 in1009.5 mb 0.00 in0.0 mm 0.00 in/hr0.0 mm/hr 0.00 in0.0 mm
05:45 AM 80.7°F27.1°C 74.7°F23.7°C 82% Calm Calm 1.0 mph1.6 kmh 29.81 in1009.5 mb 0.00 in0.0 mm 0.00 in/hr0.0 mm/hr 0.00 in0.0 mm
05:30 AM 80.9°F27.2°C 74.9°F23.8°C 82% 0.1 mph SW0.2 kmh SW -- 29.80 in1009.1 mb 0.00 in0.0 mm 0.00 in/hr0.0 mm/hr 0.00 in0.0 mm
05:15 AM 81.1°F27.3°C 74.7°F23.7°C 81% 0.3 mph NE0.5 kmh NE -- 29.81 in1009.5 mb 0.00 in0.0 mm 0.00 in/hr0.0 mm/hr 0.00 in0.0 mm
05:00 AM 81.3°F27.4°C 74.9°F23.8°C 81% 1.0 mph WNW1.6 kmh WNW 2.0 mph3.2 kmh 29.82 in1009.8 mb 0.00 in0.0 mm 0.00 in/hr0.0 mm/hr 0.00 in0.0 mm
04:45 AM 81.4°F27.4°C 74.7°F23.7°C 80% 0.6 mph WNW1.0 kmh WNW 1.0 mph1.6 kmh 29.81 in1009.5 mb 0.00 in0.0 mm 0.00 in/hr0.0 mm/hr 0.00 in0.0 mm
04:30 AM 81.6°F27.6°C 74.8°F23.8°C 80% 0.2 mph NW0.3 kmh NW 6.0 mph9.7 kmh 29.81 in1009.5 mb 0.00 in0.0 mm 0.00 in/hr0.0 mm/hr 0.00 in0.0 mm
04:15 AM 81.6°F27.6°C 74.8°F23.8°C 80% 1.4 mph NW2.3 kmh NW 6.0 mph9.7 kmh 29.81 in1009.5 mb 0.00 in0.0 mm 0.00 in/hr0.0 mm/hr 0.00 in0.0 mm
04:00 AM 81.5°F27.5°C 74.8°F23.8°C 80% 1.0 mph E1.6 kmh E 4.0 mph6.4 kmh 29.81 in1009.5 mb 0.00 in0.0 mm 0.00 in/hr0.0 mm/hr 0.00 in0.0 mm
03:45 AM 81.4°F27.4°C 75.0°F23.9°C 81% 1.8 mph W2.9 kmh W 5.0 mph8.0 kmh 29.80 in1009.1 mb 0.00 in0.0 mm 0.00 in/hr0.0 mm/hr 0.00 in0.0 mm
03:30 AM 81.1°F27.3°C 74.7°F23.7°C 81% 1.3 mph S2.1 kmh S 2.0 mph3.2 kmh 29.80 in1009.1 mb 0.00 in0.0 mm 0.00 in/hr0.0 mm/hr 0.00 in0.0 mm
03:15 AM 81.1°F27.3°C 75.1°F23.9°C 82% 1.4 mph NNE2.3 kmh NNE 3.0 mph4.8 kmh 29.81 in1009.5 mb 0.00 in0.0 mm 0.00 in/hr0.0 mm/hr 0.00 in0.0 mm
03:00 AM 81.2°F27.3°C 75.2°F24.0°C 82% 0.5 mph N0.8 kmh N 3.0 mph4.8 kmh 29.82 in1009.8 mb 0.00 in0.0 mm 0.00 in/hr0.0 mm/hr 0.00 in0.0 mm
02:45 AM 81.5°F27.5°C 75.1°F23.9°C 81% 0.1 mph S0.2 kmh S 1.0 mph1.6 kmh 29.82 in1009.8 mb 0.00 in0.0 mm 0.00 in/hr0.0 mm/hr 0.00 in0.0 mm
02:30 AM 81.6°F27.6°C 75.2°F24.0°C 81% 3.1 mph SW5.0 kmh SW 6.0 mph9.7 kmh 29.82 in1009.8 mb 0.00 in0.0 mm 0.00 in/hr0.0 mm/hr 0.00 in0.0 mm
02:15 AM 81.8°F27.7°C 75.4°F24.1°C 81% 1.0 mph S1.6 kmh S 3.0 mph4.8 kmh 29.82 in1009.8 mb 0.00 in0.0 mm 0.00 in/hr0.0 mm/hr 0.00 in0.0 mm
02:00 AM 82.1°F27.8°C 75.3°F24.1°C 80% 0.2 mph SSE0.3 kmh SSE 1.0 mph1.6 kmh 29.83 in1010.2 mb 0.00 in0.0 mm 0.00 in/hr0.0 mm/hr 0.00 in0.0 mm
01:45 AM 82.3°F27.9°C 75.5°F24.2°C 80% 0.6 mph WSW1.0 kmh WSW 4.0 mph6.4 kmh 29.83 in1010.2 mb 0.00 in0.0 mm 0.00 in/hr0.0 mm/hr 0.00 in0.0 mm
01:30 AM 82.4°F28.0°C 75.2°F24.0°C 79% 0.1 mph S0.2 kmh S 2.0 mph3.2 kmh 29.84 in1010.5 mb 0.00 in0.0 mm 0.00 in/hr0.0 mm/hr 0.00 in0.0 mm
01:15 AM 82.5°F28.1°C 75.3°F24.1°C 79% 0.3 mph SE0.5 kmh SE 2.0 mph3.2 kmh 29.84 in1010.5 mb 0.00 in0.0 mm 0.00 in/hr0.0 mm/hr 0.00 in0.0 mm
01:00 AM 82.3°F27.9°C 75.5°F24.2°C 80% 0.4 mph S0.6 kmh S 2.0 mph3.2 kmh 29.84 in1010.5 mb 0.00 in0.0 mm 0.00 in/hr0.0 mm/hr 0.00 in0.0 mm
12:45 AM 82.2°F27.9°C 75.4°F24.1°C 80% 0.6 mph NE1.0 kmh NE 2.0 mph3.2 kmh 29.85 in1010.8 mb 0.00 in0.0 mm 0.00 in/hr0.0 mm/hr 0.00 in0.0 mm
12:30 AM 82.2°F27.9°C 75.8°F24.3°C 81% Calm Calm -- 29.86 in1011.2 mb 0.00 in0.0 mm 0.00 in/hr0.0 mm/hr 0.00 in0.0 mm
12:15 AM 82.1°F27.8°C 75.6°F24.2°C 81% 0.6 mph NW1.0 kmh NW 1.0 mph1.6 kmh 29.86 in1011.2 mb 0.00 in0.0 mm 0.00 in/hr0.0 mm/hr 0.00 in0.0 mm
12:00 AM 81.8°F27.7°C 75.8°F24.3°C 82% 1.1 mph SSW1.8 kmh SSW 4.0 mph6.4 kmh 29.86 in1011.2 mb 0.00 in0.0 mm 0.00 in/hr0.0 mm/hr 0.00 in0.0 mm